sensor_id;sensor_type;location;lat;lon;timestamp;P1;durP1;ratioP1;P2;durP2;ratioP2
16480;SDS011;44634;54.110;12.138;2022-08-19T00:01:44;30.83;;;27.83;;
16480;SDS011;44634;54.110;12.138;2022-08-19T00:04:19;30.67;;;27.87;;
16480;SDS011;44634;54.110;12.138;2022-08-19T00:06:50;33.00;;;29.73;;
16480;SDS011;44634;54.110;12.138;2022-08-19T00:09:19;34.27;;;31.03;;
16480;SDS011;44634;54.110;12.138;2022-08-19T00:11:49;33.77;;;30.43;;
16480;SDS011;44634;54.110;12.138;2022-08-19T00:14:18;32.93;;;29.80;;
16480;SDS011;44634;54.110;12.138;2022-08-19T00:16:49;31.30;;;28.30;;
16480;SDS011;44634;54.110;12.138;2022-08-19T00:19:20;31.73;;;28.67;;
16480;SDS011;44634;54.110;12.138;2022-08-19T00:21:49;30.87;;;28.07;;
16480;SDS011;44634;54.110;12.138;2022-08-19T00:24:17;32.87;;;29.67;;
16480;SDS011;44634;54.110;12.138;2022-08-19T00:26:45;30.97;;;28.00;;
16480;SDS011;44634;54.110;12.138;2022-08-19T00:29:13;32.93;;;29.90;;
16480;SDS011;44634;54.110;12.138;2022-08-19T00:31:42;33.27;;;29.87;;
16480;SDS011;44634;54.110;12.138;2022-08-19T00:34:13;33.70;;;29.97;;
16480;SDS011;44634;54.110;12.138;2022-08-19T00:36:41;35.03;;;31.30;;
16480;SDS011;44634;54.110;12.138;2022-08-19T00:39:10;31.30;;;28.27;;
16480;SDS011;44634;54.110;12.138;2022-08-19T00:41:39;32.63;;;29.40;;
16480;SDS011;44634;54.110;12.138;2022-08-19T00:44:09;34.73;;;31.27;;
16480;SDS011;44634;54.110;12.138;2022-08-19T00:46:40;35.07;;;30.83;;
16480;SDS011;44634;54.110;12.138;2022-08-19T00:49:10;33.73;;;30.57;;
16480;SDS011;44634;54.110;12.138;2022-08-19T00:51:42;35.10;;;31.70;;
16480;SDS011;44634;54.110;12.138;2022-08-19T00:54:12;35.03;;;31.53;;
16480;SDS011;44634;54.110;12.138;2022-08-19T00:56:40;32.47;;;29.23;;
16480;SDS011;44634;54.110;12.138;2022-08-19T00:59:08;34.73;;;31.30;;
16480;SDS011;44634;54.110;12.138;2022-08-19T01:01:37;33.23;;;30.00;;
16480;SDS011;44634;54.110;12.138;2022-08-19T01:04:08;35.67;;;32.27;;
16480;SDS011;44634;54.110;12.138;2022-08-19T01:06:37;34.20;;;30.70;;
16480;SDS011;44634;54.110;12.138;2022-08-19T01:09:07;32.00;;;28.60;;
16480;SDS011;44634;54.110;12.138;2022-08-19T01:11:36;34.77;;;31.40;;
16480;SDS011;44634;54.110;12.138;2022-08-19T01:14:07;35.53;;;31.93;;
16480;SDS011;44634;54.110;12.138;2022-08-19T01:16:36;32.00;;;28.87;;
16480;SDS011;44634;54.110;12.138;2022-08-19T01:19:09;34.13;;;30.77;;
16480;SDS011;44634;54.110;12.138;2022-08-19T01:21:46;34.37;;;30.77;;
16480;SDS011;44634;54.110;12.138;2022-08-19T01:24:20;37.80;;;34.03;;
16480;SDS011;44634;54.110;12.138;2022-08-19T01:26:48;36.00;;;32.33;;
16480;SDS011;44634;54.110;12.138;2022-08-19T01:29:16;36.23;;;32.67;;
16480;SDS011;44634;54.110;12.138;2022-08-19T01:31:46;36.77;;;33.03;;
16480;SDS011;44634;54.110;12.138;2022-08-19T01:34:18;36.70;;;33.10;;
16480;SDS011;44634;54.110;12.138;2022-08-19T01:36:47;37.60;;;34.03;;
16480;SDS011;44634;54.110;12.138;2022-08-19T01:39:16;36.90;;;33.30;;
16480;SDS011;44634;54.110;12.138;2022-08-19T01:41:46;37.73;;;34.00;;
16480;SDS011;44634;54.110;12.138;2022-08-19T01:44:15;37.80;;;34.13;;
16480;SDS011;44634;54.110;12.138;2022-08-19T01:46:46;37.67;;;33.93;;
16480;SDS011;44634;54.110;12.138;2022-08-19T01:49:17;37.20;;;33.50;;
16480;SDS011;44634;54.110;12.138;2022-08-19T01:51:47;38.27;;;34.33;;
16480;SDS011;44634;54.110;12.138;2022-08-19T01:54:16;38.10;;;34.40;;
16480;SDS011;44634;54.110;12.138;2022-08-19T01:56:55;39.93;;;35.90;;
16480;SDS011;44634;54.110;12.138;2022-08-19T01:59:26;41.07;;;36.40;;
16480;SDS011;44634;54.110;12.138;2022-08-19T02:01:55;41.77;;;37.20;;
16480;SDS011;44634;54.110;12.138;2022-08-19T02:04:22;50.43;;;41.43;;
16480;SDS011;44634;54.110;12.138;2022-08-19T02:06:51;45.23;;;39.80;;
16480;SDS011;44634;54.110;12.138;2022-08-19T02:09:19;49.00;;;41.20;;
16480;SDS011;44634;54.110;12.138;2022-08-19T02:11:47;47.70;;;42.53;;
16480;SDS011;44634;54.110;12.138;2022-08-19T02:14:16;50.23;;;43.63;;
16480;SDS011;44634;54.110;12.138;2022-08-19T02:16:44;49.07;;;43.80;;
16480;SDS011;44634;54.110;12.138;2022-08-19T02:19:12;48.10;;;42.80;;
16480;SDS011;44634;54.110;12.138;2022-08-19T02:21:39;51.03;;;43.57;;
16480;SDS011;44634;54.110;12.138;2022-08-19T02:24:07;47.43;;;41.23;;
16480;SDS011;44634;54.110;12.138;2022-08-19T02:26:35;46.97;;;42.03;;
16480;SDS011;44634;54.110;12.138;2022-08-19T02:29:03;44.20;;;38.90;;
16480;SDS011;44634;54.110;12.138;2022-08-19T02:31:32;43.73;;;38.97;;
16480;SDS011;44634;54.110;12.138;2022-08-19T02:34:01;41.90;;;37.37;;
16480;SDS011;44634;54.110;12.138;2022-08-19T02:36:29;39.70;;;35.60;;
16480;SDS011;44634;54.110;12.138;2022-08-19T02:38:58;37.23;;;33.20;;
16480;SDS011;44634;54.110;12.138;2022-08-19T02:41:25;39.27;;;35.23;;
16480;SDS011;44634;54.110;12.138;2022-08-19T02:43:56;39.40;;;33.23;;
16480;SDS011;44634;54.110;12.138;2022-08-19T02:46:46;37.40;;;32.47;;
16480;SDS011;44634;54.110;12.138;2022-08-19T02:49:17;36.60;;;32.80;;
16480;SDS011;44634;54.110;12.138;2022-08-19T02:51:46;35.80;;;32.03;;
16480;SDS011;44634;54.110;12.138;2022-08-19T02:54:14;36.20;;;32.27;;
16480;SDS011;44634;54.110;12.138;2022-08-19T02:56:42;31.30;;;27.97;;
16480;SDS011;44634;54.110;12.138;2022-08-19T02:59:11;34.87;;;27.70;;
16480;SDS011;44634;54.110;12.138;2022-08-19T03:01:39;34.33;;;30.87;;
16480;SDS011;44634;54.110;12.138;2022-08-19T03:04:11;40.13;;;33.57;;
16480;SDS011;44634;54.110;12.138;2022-08-19T03:06:42;35.23;;;31.50;;
16480;SDS011;44634;54.110;12.138;2022-08-19T03:09:12;37.73;;;32.23;;
16480;SDS011;44634;54.110;12.138;2022-08-19T03:11:41;39.60;;;34.47;;
16480;SDS011;44634;54.110;12.138;2022-08-19T03:14:09;33.17;;;29.63;;
16480;SDS011;44634;54.110;12.138;2022-08-19T03:16:40;38.83;;;34.57;;
16480;SDS011;44634;54.110;12.138;2022-08-19T03:19:11;41.17;;;35.03;;
16480;SDS011;44634;54.110;12.138;2022-08-19T03:21:39;44.03;;;35.43;;
16480;SDS011;44634;54.110;12.138;2022-08-19T03:24:11;39.60;;;35.30;;
16480;SDS011;44634;54.110;12.138;2022-08-19T03:26:39;45.27;;;36.03;;
16480;SDS011;44634;54.110;12.138;2022-08-19T03:29:09;43.03;;;34.70;;
16480;SDS011;44634;54.110;12.138;2022-08-19T03:31:39;47.43;;;37.30;;
16480;SDS011;44634;54.110;12.138;2022-08-19T03:34:22;45.03;;;36.53;;
16480;SDS011;44634;54.110;12.138;2022-08-19T03:36:53;44.87;;;35.83;;
16480;SDS011;44634;54.110;12.138;2022-08-19T03:39:21;45.70;;;37.83;;
16480;SDS011;44634;54.110;12.138;2022-08-19T03:41:51;52.47;;;38.50;;
16480;SDS011;44634;54.110;12.138;2022-08-19T03:44:43;45.80;;;37.90;;
16480;SDS011;44634;54.110;12.138;2022-08-19T03:47:11;53.47;;;38.57;;
16480;SDS011;44634;54.110;12.138;2022-08-19T03:49:43;51.73;;;41.67;;
16480;SDS011;44634;54.110;12.138;2022-08-19T03:52:12;59.17;;;41.70;;
16480;SDS011;44634;54.110;12.138;2022-08-19T03:54:40;57.73;;;41.50;;
16480;SDS011;44634;54.110;12.138;2022-08-19T03:57:08;49.77;;;39.93;;
16480;SDS011;44634;54.110;12.138;2022-08-19T03:59:37;59.77;;;41.83;;
16480;SDS011;44634;54.110;12.138;2022-08-19T04:02:07;54.20;;;40.83;;
16480;SDS011;44634;54.110;12.138;2022-08-19T04:04:37;56.83;;;41.90;;
16480;SDS011;44634;54.110;12.138;2022-08-19T04:07:07;61.23;;;42.53;;
16480;SDS011;44634;54.110;12.138;2022-08-19T04:09:36;64.33;;;43.03;;
16480;SDS011;44634;54.110;12.138;2022-08-19T04:12:04;60.70;;;41.97;;
16480;SDS011;44634;54.110;12.138;2022-08-19T04:14:33;52.77;;;39.87;;
16480;SDS011;44634;54.110;12.138;2022-08-19T04:17:02;55.13;;;38.83;;
16480;SDS011;44634;54.110;12.138;2022-08-19T04:19:31;54.43;;;39.17;;
16480;SDS011;44634;54.110;12.138;2022-08-19T04:22:00;60.97;;;42.17;;
16480;SDS011;44634;54.110;12.138;2022-08-19T04:24:29;59.67;;;39.70;;
16480;SDS011;44634;54.110;12.138;2022-08-19T04:26:58;51.57;;;36.87;;
16480;SDS011;44634;54.110;12.138;2022-08-19T04:29:28;55.27;;;41.83;;
16480;SDS011;44634;54.110;12.138;2022-08-19T04:31:57;58.53;;;44.83;;
16480;SDS011;44634;54.110;12.138;2022-08-19T04:34:35;57.23;;;41.70;;
16480;SDS011;44634;54.110;12.138;2022-08-19T04:37:23;61.17;;;41.60;;
16480;SDS011;44634;54.110;12.138;2022-08-19T04:39:52;63.10;;;42.97;;
16480;SDS011;44634;54.110;12.138;2022-08-19T04:42:37;65.97;;;43.70;;
16480;SDS011;44634;54.110;12.138;2022-08-19T04:45:09;59.00;;;40.90;;
16480;SDS011;44634;54.110;12.138;2022-08-19T04:47:39;58.97;;;40.90;;
16480;SDS011;44634;54.110;12.138;2022-08-19T04:50:17;63.33;;;44.77;;
16480;SDS011;44634;54.110;12.138;2022-08-19T04:52:45;68.03;;;44.20;;
16480;SDS011;44634;54.110;12.138;2022-08-19T04:55:14;59.50;;;43.53;;
16480;SDS011;44634;54.110;12.138;2022-08-19T04:57:42;68.80;;;46.73;;
16480;SDS011;44634;54.110;12.138;2022-08-19T05:00:10;67.43;;;45.53;;
16480;SDS011;44634;54.110;12.138;2022-08-19T05:02:39;67.27;;;44.83;;
16480;SDS011;44634;54.110;12.138;2022-08-19T05:05:07;67.27;;;44.60;;
16480;SDS011;44634;54.110;12.138;2022-08-19T05:07:35;79.27;;;48.27;;
16480;SDS011;44634;54.110;12.138;2022-08-19T05:10:03;67.57;;;44.93;;
16480;SDS011;44634;54.110;12.138;2022-08-19T05:12:34;69.03;;;45.63;;
16480;SDS011;44634;54.110;12.138;2022-08-19T05:15:02;66.93;;;43.13;;
16480;SDS011;44634;54.110;12.138;2022-08-19T05:17:32;63.43;;;43.63;;
16480;SDS011;44634;54.110;12.138;2022-08-19T05:20:04;66.87;;;43.00;;
16480;SDS011;44634;54.110;12.138;2022-08-19T05:22:51;61.20;;;42.77;;
16480;SDS011;44634;54.110;12.138;2022-08-19T05:25:20;66.93;;;44.97;;
16480;SDS011;44634;54.110;12.138;2022-08-19T05:27:50;69.83;;;46.63;;
16480;SDS011;44634;54.110;12.138;2022-08-19T05:30:18;66.37;;;45.57;;
16480;SDS011;44634;54.110;12.138;2022-08-19T05:33:06;65.87;;;41.93;;
16480;SDS011;44634;54.110;12.138;2022-08-19T05:35:36;69.77;;;45.67;;
16480;SDS011;44634;54.110;12.138;2022-08-19T05:38:04;68.47;;;45.07;;
16480;SDS011;44634;54.110;12.138;2022-08-19T05:40:33;63.57;;;42.93;;
16480;SDS011;44634;54.110;12.138;2022-08-19T05:43:04;70.67;;;45.33;;
16480;SDS011;44634;54.110;12.138;2022-08-19T05:45:37;64.10;;;43.77;;
16480;SDS011;44634;54.110;12.138;2022-08-19T05:48:06;66.00;;;44.87;;
16480;SDS011;44634;54.110;12.138;2022-08-19T05:50:35;70.20;;;43.97;;
16480;SDS011;44634;54.110;12.138;2022-08-19T05:53:03;67.10;;;43.30;;
16480;SDS011;44634;54.110;12.138;2022-08-19T05:55:31;69.20;;;43.13;;
16480;SDS011;44634;54.110;12.138;2022-08-19T05:57:59;59.73;;;41.17;;
16480;SDS011;44634;54.110;12.138;2022-08-19T06:00:29;62.60;;;43.63;;
16480;SDS011;44634;54.110;12.138;2022-08-19T06:02:57;59.10;;;39.70;;
16480;SDS011;44634;54.110;12.138;2022-08-19T06:05:34;63.10;;;43.17;;
16480;SDS011;44634;54.110;12.138;2022-08-19T06:08:14;61.47;;;41.30;;
16480;SDS011;44634;54.110;12.138;2022-08-19T06:10:44;63.73;;;43.83;;
16480;SDS011;44634;54.110;12.138;2022-08-19T06:13:12;69.77;;;45.77;;
16480;SDS011;44634;54.110;12.138;2022-08-19T06:15:41;56.47;;;42.23;;
16480;SDS011;44634;54.110;12.138;2022-08-19T06:18:10;66.93;;;44.13;;
16480;SDS011;44634;54.110;12.138;2022-08-19T06:20:38;67.43;;;45.63;;
16480;SDS011;44634;54.110;12.138;2022-08-19T06:23:21;62.73;;;41.90;;
16480;SDS011;44634;54.110;12.138;2022-08-19T06:25:49;62.60;;;43.17;;
16480;SDS011;44634;54.110;12.138;2022-08-19T06:28:17;63.07;;;43.60;;
16480;SDS011;44634;54.110;12.138;2022-08-19T06:30:47;65.03;;;44.03;;
16480;SDS011;44634;54.110;12.138;2022-08-19T06:33:15;61.73;;;41.70;;
16480;SDS011;44634;54.110;12.138;2022-08-19T06:35:43;61.27;;;43.10;;
16480;SDS011;44634;54.110;12.138;2022-08-19T06:38:11;70.10;;;43.27;;
16480;SDS011;44634;54.110;12.138;2022-08-19T06:40:39;64.80;;;43.77;;
16480;SDS011;44634;54.110;12.138;2022-08-19T06:43:12;62.10;;;42.47;;
16480;SDS011;44634;54.110;12.138;2022-08-19T06:45:43;56.23;;;39.77;;
16480;SDS011;44634;54.110;12.138;2022-08-19T06:48:14;65.33;;;39.10;;
16480;SDS011;44634;54.110;12.138;2022-08-19T06:50:43;66.87;;;43.60;;
16480;SDS011;44634;54.110;12.138;2022-08-19T06:53:11;62.57;;;43.37;;
16480;SDS011;44634;54.110;12.138;2022-08-19T06:55:39;65.37;;;43.33;;
16480;SDS011;44634;54.110;12.138;2022-08-19T06:58:07;64.23;;;43.07;;
16480;SDS011;44634;54.110;12.138;2022-08-19T07:00:35;69.33;;;44.80;;
16480;SDS011;44634;54.110;12.138;2022-08-19T07:03:03;68.20;;;46.33;;
16480;SDS011;44634;54.110;12.138;2022-08-19T07:05:39;68.53;;;42.60;;
16480;SDS011;44634;54.110;12.138;2022-08-19T07:08:11;69.43;;;46.90;;
16480;SDS011;44634;54.110;12.138;2022-08-19T07:10:42;66.17;;;42.93;;
16480;SDS011;44634;54.110;12.138;2022-08-19T07:13:10;70.80;;;44.90;;
16480;SDS011;44634;54.110;12.138;2022-08-19T07:15:38;68.13;;;41.30;;
16480;SDS011;44634;54.110;12.138;2022-08-19T07:18:06;65.33;;;44.07;;
16480;SDS011;44634;54.110;12.138;2022-08-19T07:20:38;65.60;;;44.97;;
16480;SDS011;44634;54.110;12.138;2022-08-19T07:23:07;75.20;;;45.57;;
16480;SDS011;44634;54.110;12.138;2022-08-19T07:25:42;68.73;;;45.50;;
16480;SDS011;44634;54.110;12.138;2022-08-19T07:28:18;66.23;;;42.73;;
16480;SDS011;44634;54.110;12.138;2022-08-19T07:30:50;65.23;;;43.73;;
16480;SDS011;44634;54.110;12.138;2022-08-19T07:33:18;65.80;;;42.90;;
16480;SDS011;44634;54.110;12.138;2022-08-19T07:35:47;64.40;;;42.23;;
16480;SDS011;44634;54.110;12.138;2022-08-19T07:38:16;58.87;;;40.43;;
16480;SDS011;44634;54.110;12.138;2022-08-19T07:40:44;63.83;;;42.10;;
16480;SDS011;44634;54.110;12.138;2022-08-19T07:43:12;59.73;;;41.00;;
16480;SDS011;44634;54.110;12.138;2022-08-19T07:45:43;60.87;;;42.50;;
16480;SDS011;44634;54.110;12.138;2022-08-19T07:48:13;55.70;;;39.63;;
16480;SDS011;44634;54.110;12.138;2022-08-19T07:50:41;61.83;;;40.67;;
16480;SDS011;44634;54.110;12.138;2022-08-19T07:53:11;61.13;;;40.37;;
16480;SDS011;44634;54.110;12.138;2022-08-19T07:55:39;63.20;;;41.57;;
16480;SDS011;44634;54.110;12.138;2022-08-19T07:58:09;64.63;;;41.00;;
16480;SDS011;44634;54.110;12.138;2022-08-19T08:00:39;64.53;;;41.70;;
16480;SDS011;44634;54.110;12.138;2022-08-19T08:03:08;63.17;;;40.53;;
16480;SDS011;44634;54.110;12.138;2022-08-19T08:05:36;65.57;;;41.97;;
16480;SDS011;44634;54.110;12.138;2022-08-19T08:08:22;61.83;;;39.97;;
16480;SDS011;44634;54.110;12.138;2022-08-19T08:11:13;60.93;;;40.77;;
16480;SDS011;44634;54.110;12.138;2022-08-19T08:13:45;56.23;;;40.40;;
16480;SDS011;44634;54.110;12.138;2022-08-19T08:16:30;60.23;;;41.23;;
16480;SDS011;44634;54.110;12.138;2022-08-19T08:18:59;61.03;;;39.67;;
16480;SDS011;44634;54.110;12.138;2022-08-19T08:21:32;62.83;;;43.40;;
16480;SDS011;44634;54.110;12.138;2022-08-19T08:24:02;60.67;;;41.40;;
16480;SDS011;44634;54.110;12.138;2022-08-19T08:26:30;62.67;;;42.13;;
16480;SDS011;44634;54.110;12.138;2022-08-19T08:28:59;62.03;;;41.83;;
16480;SDS011;44634;54.110;12.138;2022-08-19T08:31:37;65.73;;;42.27;;
16480;SDS011;44634;54.110;12.138;2022-08-19T08:34:06;59.70;;;41.20;;
16480;SDS011;44634;54.110;12.138;2022-08-19T08:36:36;58.20;;;40.60;;
16480;SDS011;44634;54.110;12.138;2022-08-19T08:39:09;63.07;;;44.40;;
16480;SDS011;44634;54.110;12.138;2022-08-19T08:41:41;61.40;;;42.87;;
16480;SDS011;44634;54.110;12.138;2022-08-19T08:44:15;61.07;;;42.77;;
16480;SDS011;44634;54.110;12.138;2022-08-19T08:46:48;62.90;;;44.13;;
16480;SDS011;44634;54.110;12.138;2022-08-19T08:49:29;62.23;;;42.07;;
16480;SDS011;44634;54.110;12.138;2022-08-19T08:52:04;66.03;;;45.93;;
16480;SDS011;44634;54.110;12.138;2022-08-19T08:54:37;69.20;;;45.43;;
16480;SDS011;44634;54.110;12.138;2022-08-19T08:57:23;63.17;;;46.23;;
16480;SDS011;44634;54.110;12.138;2022-08-19T09:00:07;65.17;;;45.70;;
16480;SDS011;44634;54.110;12.138;2022-08-19T09:02:41;71.37;;;48.07;;
16480;SDS011;44634;54.110;12.138;2022-08-19T09:05:09;69.37;;;47.67;;
16480;SDS011;44634;54.110;12.138;2022-08-19T09:07:42;78.67;;;51.17;;
16480;SDS011;44634;54.110;12.138;2022-08-19T09:10:18;75.83;;;49.73;;
16480;SDS011;44634;54.110;12.138;2022-08-19T09:13:07;69.30;;;50.60;;
16480;SDS011;44634;54.110;12.138;2022-08-19T09:15:42;69.03;;;48.47;;
16480;SDS011;44634;54.110;12.138;2022-08-19T09:18:14;70.20;;;49.23;;
16480;SDS011;44634;54.110;12.138;2022-08-19T09:20:44;66.17;;;47.63;;
16480;SDS011;44634;54.110;12.138;2022-08-19T09:23:13;73.80;;;48.50;;
16480;SDS011;44634;54.110;12.138;2022-08-19T09:25:43;66.87;;;47.67;;
16480;SDS011;44634;54.110;12.138;2022-08-19T09:28:11;65.57;;;48.70;;
16480;SDS011;44634;54.110;12.138;2022-08-19T09:30:48;63.30;;;46.03;;
16480;SDS011;44634;54.110;12.138;2022-08-19T09:33:18;64.80;;;46.33;;
16480;SDS011;44634;54.110;12.138;2022-08-19T09:35:46;64.20;;;49.03;;
16480;SDS011;44634;54.110;12.138;2022-08-19T09:38:19;59.23;;;46.90;;
16480;SDS011;44634;54.110;12.138;2022-08-19T09:40:48;57.60;;;43.43;;
16480;SDS011;44634;54.110;12.138;2022-08-19T09:43:16;56.80;;;44.23;;
16480;SDS011;44634;54.110;12.138;2022-08-19T09:45:59;55.03;;;43.30;;
16480;SDS011;44634;54.110;12.138;2022-08-19T09:48:27;55.10;;;43.57;;
16480;SDS011;44634;54.110;12.138;2022-08-19T09:51:01;57.40;;;44.57;;
16480;SDS011;44634;54.110;12.138;2022-08-19T09:53:30;52.23;;;42.70;;
16480;SDS011;44634;54.110;12.138;2022-08-19T09:56:00;54.63;;;44.07;;
16480;SDS011;44634;54.110;12.138;2022-08-19T09:58:29;54.50;;;43.33;;
16480;SDS011;44634;54.110;12.138;2022-08-19T10:00:57;54.90;;;43.70;;
16480;SDS011;44634;54.110;12.138;2022-08-19T10:03:27;52.50;;;42.90;;
16480;SDS011;44634;54.110;12.138;2022-08-19T10:05:57;54.17;;;41.57;;
16480;SDS011;44634;54.110;12.138;2022-08-19T10:08:27;47.93;;;39.03;;
16480;SDS011;44634;54.110;12.138;2022-08-19T10:10:56;46.07;;;38.97;;
16480;SDS011;44634;54.110;12.138;2022-08-19T10:13:46;46.70;;;38.20;;
16480;SDS011;44634;54.110;12.138;2022-08-19T10:16:15;44.93;;;39.73;;
16480;SDS011;44634;54.110;12.138;2022-08-19T10:18:54;48.00;;;41.17;;
16480;SDS011;44634;54.110;12.138;2022-08-19T10:21:26;50.57;;;40.77;;
16480;SDS011;44634;54.110;12.138;2022-08-19T10:23:58;52.00;;;40.80;;
16480;SDS011;44634;54.110;12.138;2022-08-19T10:26:28;47.63;;;40.13;;
16480;SDS011;44634;54.110;12.138;2022-08-19T10:28:59;47.20;;;39.93;;
16480;SDS011;44634;54.110;12.138;2022-08-19T10:31:28;48.53;;;40.43;;
16480;SDS011;44634;54.110;12.138;2022-08-19T10:34:17;46.27;;;38.30;;
16480;SDS011;44634;54.110;12.138;2022-08-19T10:36:53;49.67;;;41.10;;
16480;SDS011;44634;54.110;12.138;2022-08-19T10:39:26;50.70;;;42.40;;
16480;SDS011;44634;54.110;12.138;2022-08-19T10:41:57;51.03;;;41.50;;
16480;SDS011;44634;54.110;12.138;2022-08-19T10:44:27;48.30;;;40.47;;
16480;SDS011;44634;54.110;12.138;2022-08-19T10:46:58;49.10;;;42.00;;
16480;SDS011;44634;54.110;12.138;2022-08-19T10:49:26;48.67;;;40.07;;
16480;SDS011;44634;54.110;12.138;2022-08-19T10:51:54;46.60;;;39.00;;
16480;SDS011;44634;54.110;12.138;2022-08-19T10:54:45;47.23;;;39.83;;
16480;SDS011;44634;54.110;12.138;2022-08-19T10:57:33;49.97;;;38.90;;
16480;SDS011;44634;54.110;12.138;2022-08-19T11:00:23;45.93;;;40.57;;
16480;SDS011;44634;54.110;12.138;2022-08-19T11:02:52;46.87;;;41.00;;
16480;SDS011;44634;54.110;12.138;2022-08-19T11:05:19;46.00;;;38.70;;
16480;SDS011;44634;54.110;12.138;2022-08-19T11:07:49;43.40;;;37.67;;
16480;SDS011;44634;54.110;12.138;2022-08-19T11:10:18;44.77;;;39.37;;
16480;SDS011;44634;54.110;12.138;2022-08-19T11:12:48;46.27;;;40.47;;
16480;SDS011;44634;54.110;12.138;2022-08-19T11:15:20;44.97;;;38.77;;
16480;SDS011;44634;54.110;12.138;2022-08-19T11:17:52;45.23;;;39.37;;
16480;SDS011;44634;54.110;12.138;2022-08-19T11:20:20;45.47;;;39.93;;
16480;SDS011;44634;54.110;12.138;2022-08-19T11:22:51;45.40;;;39.67;;
16480;SDS011;44634;54.110;12.138;2022-08-19T11:25:19;47.53;;;41.10;;
16480;SDS011;44634;54.110;12.138;2022-08-19T11:27:47;40.57;;;36.00;;
16480;SDS011;44634;54.110;12.138;2022-08-19T11:30:17;40.27;;;35.80;;
16480;SDS011;44634;54.110;12.138;2022-08-19T11:32:45;42.27;;;37.73;;
16480;SDS011;44634;54.110;12.138;2022-08-19T11:35:16;42.80;;;37.93;;
16480;SDS011;44634;54.110;12.138;2022-08-19T11:37:47;43.13;;;36.13;;
16480;SDS011;44634;54.110;12.138;2022-08-19T11:40:15;46.90;;;39.37;;
16480;SDS011;44634;54.110;12.138;2022-08-19T11:42:43;44.13;;;39.17;;
16480;SDS011;44634;54.110;12.138;2022-08-19T11:45:23;44.50;;;38.47;;
16480;SDS011;44634;54.110;12.138;2022-08-19T11:47:52;45.13;;;39.47;;
16480;SDS011;44634;54.110;12.138;2022-08-19T11:50:21;46.07;;;39.07;;
16480;SDS011;44634;54.110;12.138;2022-08-19T11:52:53;47.60;;;41.03;;
16480;SDS011;44634;54.110;12.138;2022-08-19T11:55:21;46.50;;;41.23;;
16480;SDS011;44634;54.110;12.138;2022-08-19T11:57:49;45.37;;;39.43;;
16480;SDS011;44634;54.110;12.138;2022-08-19T12:00:17;50.43;;;42.90;;
16480;SDS011;44634;54.110;12.138;2022-08-19T12:02:45;48.27;;;42.50;;
16480;SDS011;44634;54.110;12.138;2022-08-19T12:05:13;49.77;;;42.73;;
16480;SDS011;44634;54.110;12.138;2022-08-19T12:07:42;50.07;;;41.37;;
16480;SDS011;44634;54.110;12.138;2022-08-19T12:10:10;51.97;;;42.90;;
16480;SDS011;44634;54.110;12.138;2022-08-19T12:12:38;50.77;;;42.20;;
16480;SDS011;44634;54.110;12.138;2022-08-19T12:15:08;49.40;;;39.53;;
16480;SDS011;44634;54.110;12.138;2022-08-19T12:17:38;52.63;;;42.63;;
16480;SDS011;44634;54.110;12.138;2022-08-19T12:20:06;47.57;;;41.73;;
16480;SDS011;44634;54.110;12.138;2022-08-19T12:22:37;47.87;;;42.20;;
16480;SDS011;44634;54.110;12.138;2022-08-19T12:25:07;47.60;;;40.90;;
16480;SDS011;44634;54.110;12.138;2022-08-19T12:27:35;44.20;;;39.40;;
16480;SDS011;44634;54.110;12.138;2022-08-19T12:30:07;46.23;;;39.67;;
16480;SDS011;44634;54.110;12.138;2022-08-19T12:32:38;42.83;;;38.13;;
16480;SDS011;44634;54.110;12.138;2022-08-19T12:35:06;43.37;;;38.37;;
16480;SDS011;44634;54.110;12.138;2022-08-19T12:37:35;46.47;;;39.17;;
16480;SDS011;44634;54.110;12.138;2022-08-19T12:40:04;42.03;;;37.63;;
16480;SDS011;44634;54.110;12.138;2022-08-19T12:42:33;43.47;;;37.67;;
16480;SDS011;44634;54.110;12.138;2022-08-19T12:45:01;47.97;;;40.33;;
16480;SDS011;44634;54.110;12.138;2022-08-19T12:47:33;45.40;;;39.90;;
16480;SDS011;44634;54.110;12.138;2022-08-19T12:50:06;47.17;;;42.07;;
16480;SDS011;44634;54.110;12.138;2022-08-19T12:52:35;46.87;;;41.83;;
16480;SDS011;44634;54.110;12.138;2022-08-19T12:55:04;47.73;;;40.77;;
16480;SDS011;44634;54.110;12.138;2022-08-19T12:57:35;45.67;;;40.53;;
16480;SDS011;44634;54.110;12.138;2022-08-19T13:00:04;44.80;;;40.00;;
16480;SDS011;44634;54.110;12.138;2022-08-19T13:02:35;46.53;;;41.17;;
16480;SDS011;44634;54.110;12.138;2022-08-19T13:05:05;45.37;;;40.50;;
16480;SDS011;44634;54.110;12.138;2022-08-19T13:07:35;44.70;;;39.83;;
16480;SDS011;44634;54.110;12.138;2022-08-19T13:10:05;44.80;;;39.43;;
16480;SDS011;44634;54.110;12.138;2022-08-19T13:12:36;47.07;;;40.67;;
16480;SDS011;44634;54.110;12.138;2022-08-19T13:15:04;44.40;;;39.67;;
16480;SDS011;44634;54.110;12.138;2022-08-19T13:17:36;48.03;;;42.93;;
16480;SDS011;44634;54.110;12.138;2022-08-19T13:20:05;47.07;;;40.70;;
16480;SDS011;44634;54.110;12.138;2022-08-19T13:22:35;45.13;;;40.23;;
16480;SDS011;44634;54.110;12.138;2022-08-19T13:25:03;50.77;;;45.27;;
16480;SDS011;44634;54.110;12.138;2022-08-19T13:27:32;96.00;;;85.77;;
16480;SDS011;44634;54.110;12.138;2022-08-19T13:30:02;45.33;;;40.60;;
16480;SDS011;44634;54.110;12.138;2022-08-19T13:32:49;42.53;;;38.17;;
16480;SDS011;44634;54.110;12.138;2022-08-19T13:35:35;43.90;;;39.20;;
16480;SDS011;44634;54.110;12.138;2022-08-19T13:38:02;42.17;;;37.73;;
16480;SDS011;44634;54.110;12.138;2022-08-19T13:40:37;42.33;;;38.13;;
16480;SDS011;44634;54.110;12.138;2022-08-19T13:43:06;39.17;;;35.17;;
16480;SDS011;44634;54.110;12.138;2022-08-19T13:45:50;40.00;;;35.90;;
16480;SDS011;44634;54.110;12.138;2022-08-19T13:48:20;39.53;;;35.43;;
16480;SDS011;44634;54.110;12.138;2022-08-19T13:50:48;39.70;;;35.70;;
16480;SDS011;44634;54.110;12.138;2022-08-19T13:53:16;39.23;;;35.33;;
16480;SDS011;44634;54.110;12.138;2022-08-19T13:55:44;40.70;;;36.53;;
16480;SDS011;44634;54.110;12.138;2022-08-19T13:58:12;45.07;;;40.20;;
16480;SDS011;44634;54.110;12.138;2022-08-19T14:00:42;40.53;;;36.33;;
16480;SDS011;44634;54.110;12.138;2022-08-19T14:03:14;37.77;;;33.80;;
16480;SDS011;44634;54.110;12.138;2022-08-19T14:05:42;36.17;;;32.27;;
16480;SDS011;44634;54.110;12.138;2022-08-19T14:08:10;38.43;;;34.53;;
16480;SDS011;44634;54.110;12.138;2022-08-19T14:10:40;41.13;;;36.93;;
16480;SDS011;44634;54.110;12.138;2022-08-19T14:13:10;34.80;;;31.27;;
16480;SDS011;44634;54.110;12.138;2022-08-19T14:15:41;36.43;;;32.60;;
16480;SDS011;44634;54.110;12.138;2022-08-19T14:18:09;34.07;;;30.67;;
16480;SDS011;44634;54.110;12.138;2022-08-19T14:20:38;32.87;;;29.53;;
16480;SDS011;44634;54.110;12.138;2022-08-19T14:23:06;34.70;;;31.20;;
16480;SDS011;44634;54.110;12.138;2022-08-19T14:25:34;35.87;;;32.37;;
16480;SDS011;44634;54.110;12.138;2022-08-19T14:28:02;36.73;;;32.83;;
16480;SDS011;44634;54.110;12.138;2022-08-19T14:30:31;38.37;;;34.43;;